Archival Weather

NSFA McMurdo Sound

NSFA McMurdo Sound, Antarctica (NZCM)

Report from: Friday, September 23, 2022 12:37 PM UTC
Current time: Sunday, December 4, 2022 11:47 AM UTC

Current weather
Weather history
Weather forecast

Present weatherHaze
Temperature-19.7°C (-3.5°F)
Wind chill-31.4°C (-24.5°F)
Dew point-24.3°C (-11.7°F)
Winds 14 kts (7.2 m/s, 16.1 mph) Vrb
Wind gusts 26 kts (13.4 m/s, 29.9 mph)
Winds variableWinds variable from East-Northeast (60°) to East-Southeast (120°)
Peak wind 29 kts (14.9 m/s, 33.4 mph) East (80°) at 07:11
Visibility1.2 mi. (1.9 km)
Clouds Ceiling: Overcast 2,100 ft. (640 m)
Altimeter28.62 in.Hg (969 mB)
Precip. events Snow ended 11:56 AM
Snow began 11:59 AM
Snow ended 12:37 PM
Relative humidity67 %
Density altitude-2,864 ft. (-873 m)
Sea-level pressure107.0 kPa (1070 mB, 31.59 in.Hg)
Remarks Fully automated report
System requires maintenance
Special weather observation
Automated weather observing station with precipitation discriminator
Flight conditions Instrument Meteorological Conditions
Raw dataSPECI NZCM 231237Z AUTO 08014G26KT 060V120 1900 HZ OVC021 M20/M24 A2862 RMK AO2 PK WND 08029/1211 WSHFT 1156 SNE1156B1159E1237 SLP697 T11971243 $
An error has occurred. This application may no longer respond until reloaded. Reload 🗙